CPA261 VHHH-LFPG
Flight info
| Callsign | CPA261 |
|---|---|
| Flight time | N/A |
| Altitude | 34000 |
| Route | BEKOL A461 SHL W22 TEPID W24 OSNOV G586 QP B330 ELKAL W179 BIPIP/K0937S0980 W179 IGNAK/K0937S0950 W179 WFX/K0932S0980 W179 OMBON Y1 SADAN/K0909S1040 W186 KAMUD/K0904F340 L141 TISIB L163 SR N193 OGOLI T898 DARVA/N0490F340 B476 METKA L88 RASAM/N0487F360 N199 EDATA M11 REBLO DCT CRM DCT MAKOL Q12 GOGAR Q18 DOLAP DCT ROTAR DCT SRN DCT CERVI DCT MOLUS DCT UNKIR DCT GIVRI DCT TINIL |
| Aircraft | B77W/H-SDE1E2E3FGHIJ2J3J4J5M1RWXY/LB1D1 |
Departure
| Time | N/A |
|---|---|
| Airport | Hong Kong International Airport (VHHH) |
Arrival
| Time | 2026-05-04 12:28 |
|---|---|
| Airport | Charles de Gaulle International Airport (LFPG) |
| Time | Latitude | Longitude | Altitude | Speed | Heading |
|---|---|---|---|---|---|
| 2026-05-04 09:46 | 41.31419 | 60.56075 | 33996 ft | 462 kts | 265° |
| 2026-05-04 09:46 | 41.30965 | 60.47579 | 33985 ft | 462 kts | 265° |
| 2026-05-04 09:47 | 41.30807 | 60.38997 | 33999 ft | 464 kts | 273° |
| 2026-05-04 09:49 | 41.32539 | 60.04686 | 34003 ft | 465 kts | 272° |
| 2026-05-04 09:51 | 41.33934 | 59.74833 | 34010 ft | 461 kts | 272° |
| 2026-05-04 09:51 | 41.34198 | 59.66342 | 34014 ft | 459 kts | 268° |
| 2026-05-04 09:52 | 41.33540 | 59.57881 | 34023 ft | 458 kts | 262° |
| 2026-05-04 09:52 | 41.32717 | 59.49510 | 34019 ft | 458 kts | 262° |
| 2026-05-04 09:53 | 41.31907 | 59.41069 | 34010 ft | 458 kts | 262° |
| 2026-05-04 09:53 | 41.31112 | 59.32692 | 34011 ft | 459 kts | 262° |
| 2026-05-04 09:54 | 41.30308 | 59.24254 | 34008 ft | 459 kts | 262° |
| 2026-05-04 09:54 | 41.29504 | 59.15876 | 34008 ft | 459 kts | 262° |
| 2026-05-04 09:55 | 41.28685 | 59.07423 | 33999 ft | 459 kts | 262° |
| 2026-05-04 09:55 | 41.27866 | 58.99036 | 33992 ft | 459 kts | 262° |
| 2026-05-04 09:56 | 41.25289 | 58.73057 | 33988 ft | 458 kts | 262° |
| 2026-05-04 09:56 | 41.21867 | 58.39460 | 33983 ft | 457 kts | 262° |
| 2026-05-04 09:57 | 41.18370 | 58.06093 | 33971 ft | 456 kts | 262° |
| 2026-05-04 09:57 | 41.14769 | 57.72845 | 33959 ft | 456 kts | 262° |
| 2026-05-04 09:58 | 41.11065 | 57.39534 | 33939 ft | 456 kts | 261° |
| 2026-05-04 09:58 | 41.07293 | 57.06494 | 33940 ft | 454 kts | 261° |
| 2026-05-04 10:00 | 40.99644 | 55.74331 | 33879 ft | 448 kts | 267° |
| 2026-05-04 10:02 | 40.97587 | 54.71703 | 34645 ft | 452 kts | 266° |
| 2026-05-04 10:04 | 40.95963 | 54.12746 | 35886 ft | 448 kts | 266° |
| 2026-05-04 10:04 | 40.94938 | 53.80233 | 35892 ft | 437 kts | 266° |
| 2026-05-04 10:05 | 40.93821 | 53.47705 | 35971 ft | 452 kts | 266° |
| 2026-05-04 10:05 | 40.93211 | 53.30953 | 35858 ft | 453 kts | 266° |
| 2026-05-04 10:05 | 40.92940 | 53.23688 | 35818 ft | 448 kts | 266° |
| 2026-05-04 10:06 | 40.92366 | 53.08816 | 35969 ft | 437 kts | 265° |
| 2026-05-04 10:06 | 40.91016 | 52.76903 | 35939 ft | 435 kts | 265° |
| 2026-05-04 10:08 | 40.75369 | 51.67294 | 35905 ft | 437 kts | 257° |
| 2026-05-04 10:08 | 40.71931 | 51.35793 | 35893 ft | 436 kts | 265° |
| 2026-05-04 10:09 | 40.70629 | 51.03943 | 35872 ft | 436 kts | 264° |
| 2026-05-04 10:09 | 40.69222 | 50.71985 | 35848 ft | 436 kts | 264° |
| 2026-05-04 10:10 | 40.67730 | 50.40046 | 35864 ft | 438 kts | 264° |
| 2026-05-04 10:10 | 40.66145 | 50.08030 | 35897 ft | 440 kts | 263° |
| 2026-05-04 10:11 | 40.64750 | 49.81190 | 35852 ft | 441 kts | 263° |
| 2026-05-04 10:11 | 40.62691 | 49.43619 | 35805 ft | 441 kts | 263° |
| 2026-05-04 10:12 | 40.61039 | 49.11600 | 35817 ft | 441 kts | 265° |
| 2026-05-04 10:12 | 40.60591 | 48.84695 | 35844 ft | 441 kts | 265° |
| 2026-05-04 10:13 | 40.59829 | 48.52252 | 35857 ft | 442 kts | 265° |
| 2026-05-04 10:13 | 40.58983 | 48.19880 | 35838 ft | 444 kts | 264° |
| 2026-05-04 10:14 | 40.58510 | 47.87680 | 35914 ft | 444 kts | 268° |
| 2026-05-04 10:16 | 40.66749 | 46.58514 | 35905 ft | 445 kts | 272° |
| 2026-05-04 10:16 | 40.69882 | 46.26253 | 35922 ft | 446 kts | 272° |
| 2026-05-04 10:17 | 40.72962 | 45.93545 | 35957 ft | 449 kts | 272° |
| 2026-05-04 10:19 | 40.80233 | 44.73427 | 35934 ft | 449 kts | 268° |
| 2026-05-04 10:19 | 40.81486 | 44.40611 | 35950 ft | 448 kts | 268° |
| 2026-05-04 10:20 | 40.82694 | 44.07396 | 35895 ft | 452 kts | 267° |
| 2026-05-04 10:20 | 40.83809 | 43.74137 | 35920 ft | 456 kts | 267° |
| 2026-05-04 10:21 | 40.85998 | 43.46162 | 35876 ft | 460 kts | 271° |
| 2026-05-04 10:21 | 40.88944 | 43.12706 | 35864 ft | 458 kts | 271° |
| 2026-05-04 10:22 | 40.93164 | 42.62414 | 35862 ft | 459 kts | 271° |
| 2026-05-04 10:23 | 40.95859 | 42.28796 | 35850 ft | 462 kts | 270° |
| 2026-05-04 10:25 | 41.05889 | 40.90663 | 35897 ft | 480 kts | 270° |
| 2026-05-04 10:25 | 41.08189 | 40.55321 | 35897 ft | 484 kts | 270° |
| 2026-05-04 10:26 | 41.10389 | 40.19806 | 35891 ft | 486 kts | 270° |
| 2026-05-04 10:26 | 41.12499 | 39.83890 | 35887 ft | 487 kts | 270° |
| 2026-05-04 10:27 | 41.14498 | 39.47950 | 35872 ft | 492 kts | 269° |
| 2026-05-04 10:27 | 41.16401 | 39.11699 | 35869 ft | 494 kts | 269° |
| 2026-05-04 10:28 | 41.18205 | 38.75093 | 35836 ft | 497 kts | 269° |
| 2026-05-04 10:28 | 41.19901 | 38.38302 | 35837 ft | 498 kts | 269° |
| 2026-05-04 10:29 | 41.21476 | 38.01592 | 35829 ft | 501 kts | 269° |
| 2026-05-04 10:29 | 41.22946 | 37.64543 | 35823 ft | 502 kts | 269° |
| 2026-05-04 10:30 | 41.24292 | 37.27632 | 35838 ft | 502 kts | 270° |
| 2026-05-04 10:30 | 41.25530 | 36.90430 | 35796 ft | 503 kts | 270° |
| 2026-05-04 10:31 | 41.26797 | 36.53482 | 35795 ft | 504 kts | 276° |
| 2026-05-04 10:31 | 41.29009 | 36.38944 | 35689 ft | 508 kts | 281° |
| 2026-05-04 10:32 | 41.39397 | 35.70926 | 35813 ft | 509 kts | 281° |
| 2026-05-04 10:33 | 41.44826 | 35.33937 | 35784 ft | 510 kts | 280° |
| 2026-05-04 10:33 | 41.50172 | 34.96634 | 35799 ft | 512 kts | 280° |
| 2026-05-04 10:34 | 41.55367 | 34.59488 | 35813 ft | 512 kts | 280° |
| 2026-05-04 10:34 | 41.60480 | 34.22003 | 35799 ft | 511 kts | 280° |
| 2026-05-04 10:35 | 41.65472 | 33.84451 | 35825 ft | 512 kts | 281° |
| 2026-05-04 10:35 | 41.70331 | 33.46933 | 35821 ft | 511 kts | 281° |
| 2026-05-04 10:36 | 41.75044 | 33.09537 | 35859 ft | 510 kts | 281° |
| 2026-05-04 10:36 | 41.79623 | 32.72200 | 35885 ft | 510 kts | 281° |
| 2026-05-04 10:37 | 41.84106 | 32.34585 | 35890 ft | 509 kts | 281° |
| 2026-05-04 10:37 | 41.88460 | 31.96988 | 35889 ft | 508 kts | 281° |
| 2026-05-04 10:39 | 42.02599 | 30.66257 | 35935 ft | 506 kts | 280° |
| 2026-05-04 10:40 | 42.06384 | 30.28611 | 35961 ft | 507 kts | 280° |
| 2026-05-04 10:40 | 42.10033 | 29.91064 | 35968 ft | 507 kts | 280° |
| 2026-05-04 10:41 | 42.13567 | 29.53393 | 35995 ft | 507 kts | 279° |
| 2026-05-04 10:41 | 42.17087 | 29.15551 | 36005 ft | 506 kts | 283° |
| 2026-05-04 10:42 | 42.26008 | 28.79890 | 35952 ft | 504 kts | 291° |
| 2026-05-04 10:42 | 42.35146 | 28.44017 | 36012 ft | 504 kts | 291° |
| 2026-05-04 10:43 | 42.44138 | 28.08211 | 36044 ft | 504 kts | 291° |
| 2026-05-04 10:45 | 42.79130 | 26.63335 | 36067 ft | 506 kts | 288° |
| 2026-05-04 10:45 | 42.87638 | 26.26658 | 36078 ft | 505 kts | 288° |
| 2026-05-04 10:46 | 42.95971 | 25.90136 | 36085 ft | 502 kts | 288° |
| 2026-05-04 10:46 | 43.04113 | 25.53851 | 36093 ft | 498 kts | 288° |
| 2026-05-04 10:47 | 43.12117 | 25.17715 | 36108 ft | 496 kts | 287° |
| 2026-05-04 10:47 | 43.19972 | 24.81652 | 36128 ft | 496 kts | 287° |
| 2026-05-04 10:49 | 43.38588 | 23.59850 | 36137 ft | 491 kts | 271° |
| 2026-05-04 10:49 | 43.38413 | 23.44565 | 36268 ft | 489 kts | 271° |
| 2026-05-04 10:50 | 43.38318 | 23.36628 | 36187 ft | 491 kts | 271° |
| 2026-05-04 10:51 | 43.46474 | 22.39160 | 36129 ft | 482 kts | 292° |
| 2026-05-04 10:52 | 43.50647 | 22.21638 | 36139 ft | 479 kts | 292° |
| 2026-05-04 10:52 | 43.57406 | 21.92975 | 36054 ft | 478 kts | 292° |
| 2026-05-04 10:54 | 43.72105 | 21.29352 | 36203 ft | 471 kts | 291° |
| 2026-05-04 10:54 | 43.76061 | 21.11906 | 36146 ft | 471 kts | 291° |
| 2026-05-04 10:56 | 44.06188 | 19.74179 | 36168 ft | 464 kts | 290° |
| 2026-05-04 10:57 | 44.13393 | 19.39850 | 36154 ft | 463 kts | 289° |
| 2026-05-04 10:57 | 44.20517 | 19.05332 | 36147 ft | 463 kts | 289° |
| 2026-05-04 10:58 | 44.27519 | 18.70817 | 36132 ft | 461 kts | 288° |
| 2026-05-04 10:58 | 44.34373 | 18.36447 | 36172 ft | 460 kts | 288° |
| 2026-05-04 10:59 | 44.41114 | 18.02041 | 36144 ft | 461 kts | 288° |
| 2026-05-04 10:59 | 44.46679 | 17.73172 | 36132 ft | 461 kts | 287° |
| 2026-05-04 11:00 | 44.54333 | 17.32742 | 36107 ft | 460 kts | 287° |
| 2026-05-04 11:02 | 44.78348 | 15.99875 | 36095 ft | 456 kts | 285° |
| 2026-05-04 11:05 | 45.20517 | 13.38890 | 36115 ft | 458 kts | 281° |
| 2026-05-04 11:06 | 45.25760 | 13.03319 | 36110 ft | 459 kts | 281° |
| 2026-05-04 11:06 | 45.27501 | 12.89925 | 36634 ft | 462 kts | 278° |
| 2026-05-04 11:06 | 45.27983 | 12.85475 | 36992 ft | 460 kts | 278° |
| 2026-05-04 11:08 | 45.33075 | 12.38932 | 38100 ft | 455 kts | 277° |
| 2026-05-04 11:10 | 45.36389 | 12.08097 | 38109 ft | 451 kts | 277° |
| 2026-05-04 11:12 | 45.40090 | 11.72664 | 38098 ft | 455 kts | 277° |
| 2026-05-04 11:12 | 45.41008 | 11.63710 | 38098 ft | 455 kts | 277° |
| 2026-05-04 11:13 | 45.41913 | 11.54808 | 38098 ft | 455 kts | 277° |
| 2026-05-04 11:13 | 45.42808 | 11.45928 | 38098 ft | 455 kts | 277° |
| 2026-05-04 11:14 | 45.43701 | 11.36998 | 38097 ft | 454 kts | 277° |
| 2026-05-04 11:16 | 45.47175 | 11.01547 | 38106 ft | 452 kts | 276° |
| 2026-05-04 11:16 | 45.48029 | 10.92649 | 38117 ft | 452 kts | 276° |
| 2026-05-04 11:17 | 45.48875 | 10.83758 | 38103 ft | 452 kts | 276° |
| 2026-05-04 11:19 | 45.52185 | 10.48242 | 38107 ft | 452 kts | 276° |
| 2026-05-04 11:19 | 45.52996 | 10.39341 | 38102 ft | 452 kts | 276° |
| 2026-05-04 11:20 | 45.53797 | 10.30487 | 38107 ft | 452 kts | 276° |
| 2026-05-04 11:20 | 45.54595 | 10.21573 | 38102 ft | 452 kts | 276° |
| 2026-05-04 11:22 | 45.57704 | 9.86067 | 38128 ft | 451 kts | 275° |
| 2026-05-04 11:23 | 45.58467 | 9.77158 | 38138 ft | 451 kts | 275° |
| 2026-05-04 11:25 | 45.61075 | 9.46026 | 38214 ft | 451 kts | 275° |
| 2026-05-04 11:25 | 45.61804 | 9.37125 | 38129 ft | 454 kts | 275° |
| 2026-05-04 11:27 | 45.65688 | 8.97028 | 38117 ft | 454 kts | 285° |
| 2026-05-04 11:28 | 45.67655 | 8.88483 | 38120 ft | 453 kts | 285° |
| 2026-05-04 11:28 | 45.69613 | 8.79952 | 38135 ft | 453 kts | 285° |
| 2026-05-04 11:29 | 45.71559 | 8.71333 | 38112 ft | 454 kts | 285° |
| 2026-05-04 11:29 | 45.73474 | 8.62770 | 38124 ft | 455 kts | 285° |
| 2026-05-04 11:33 | 45.86834 | 8.01974 | 38140 ft | 458 kts | 284° |
| 2026-05-04 11:33 | 45.88720 | 7.93250 | 38137 ft | 458 kts | 284° |
| 2026-05-04 11:34 | 45.90611 | 7.84478 | 38135 ft | 460 kts | 284° |
| 2026-05-04 11:34 | 45.92481 | 7.75742 | 38130 ft | 460 kts | 284° |
| 2026-05-04 11:35 | 45.94362 | 7.66927 | 38132 ft | 460 kts | 284° |
| 2026-05-04 11:35 | 45.96365 | 7.58232 | 38117 ft | 462 kts | 290° |
| 2026-05-04 11:36 | 45.99457 | 7.50061 | 38107 ft | 466 kts | 301° |
| 2026-05-04 11:36 | 46.03417 | 7.42677 | 38047 ft | 468 kts | 306° |
| 2026-05-04 11:37 | 46.07506 | 7.35434 | 38037 ft | 467 kts | 306° |
| 2026-05-04 11:37 | 46.11583 | 7.28129 | 38018 ft | 466 kts | 305° |
| 2026-05-04 11:38 | 46.15603 | 7.20835 | 38034 ft | 466 kts | 305° |
| 2026-05-04 11:38 | 46.19642 | 7.13468 | 38025 ft | 467 kts | 305° |
| 2026-05-04 11:39 | 46.23659 | 7.06122 | 38021 ft | 468 kts | 305° |
| 2026-05-04 11:41 | 46.37808 | 6.80106 | 38038 ft | 471 kts | 304° |
| 2026-05-04 11:41 | 46.41853 | 6.72627 | 38048 ft | 469 kts | 304° |
| 2026-05-04 11:42 | 46.45644 | 6.65005 | 38035 ft | 465 kts | 296° |
| 2026-05-04 11:42 | 46.48838 | 6.56906 | 38039 ft | 464 kts | 295° |
| 2026-05-04 11:43 | 46.52017 | 6.48727 | 38038 ft | 464 kts | 296° |
| 2026-05-04 11:43 | 46.55200 | 6.40602 | 38035 ft | 465 kts | 295° |
| 2026-05-04 11:44 | 46.58398 | 6.32462 | 38024 ft | 465 kts | 295° |
| 2026-05-04 11:44 | 46.61621 | 6.24247 | 38034 ft | 465 kts | 295° |
| 2026-05-04 11:45 | 46.64798 | 6.16119 | 38031 ft | 465 kts | 295° |
| 2026-05-04 11:45 | 46.67997 | 6.07905 | 38056 ft | 464 kts | 295° |
| 2026-05-04 11:46 | 46.71166 | 5.99743 | 38020 ft | 465 kts | 295° |
| 2026-05-04 11:46 | 46.74357 | 5.91503 | 38019 ft | 465 kts | 295° |
| 2026-05-04 11:47 | 46.77520 | 5.83311 | 38042 ft | 465 kts | 295° |
| 2026-05-04 11:47 | 46.81016 | 5.75276 | 38023 ft | 475 kts | 307° |
| 2026-05-04 11:48 | 46.86035 | 5.68902 | 38020 ft | 488 kts | 324° |
| 2026-05-04 11:48 | 46.91994 | 5.64126 | 38027 ft | 489 kts | 327° |
| 2026-05-04 11:49 | 46.97021 | 5.60238 | 38041 ft | 489 kts | 327° |
| 2026-05-04 11:49 | 47.03985 | 5.54702 | 38054 ft | 487 kts | 326° |
| 2026-05-04 11:50 | 47.09895 | 5.49917 | 38053 ft | 488 kts | 327° |
| 2026-05-04 11:50 | 47.14851 | 5.45890 | 38028 ft | 488 kts | 327° |
| 2026-05-04 11:51 | 47.20815 | 5.41039 | 38027 ft | 488 kts | 327° |
| 2026-05-04 11:51 | 47.25329 | 5.37362 | 38050 ft | 489 kts | 326° |
| 2026-05-04 11:52 | 47.31284 | 5.32503 | 38028 ft | 490 kts | 327° |
| 2026-05-04 11:52 | 47.37240 | 5.27652 | 38005 ft | 491 kts | 327° |
| 2026-05-04 11:52 | 47.40287 | 5.25164 | 37196 ft | 502 kts | 327° |
| 2026-05-04 11:53 | 47.43341 | 5.22668 | 36550 ft | 500 kts | 327° |
| 2026-05-04 11:53 | 47.46354 | 5.20205 | 35823 ft | 499 kts | 327° |
| 2026-05-04 11:53 | 47.49399 | 5.17712 | 35032 ft | 499 kts | 327° |
| 2026-05-04 11:53 | 47.52457 | 5.15201 | 34185 ft | 502 kts | 327° |
| 2026-05-04 11:55 | 47.71791 | 4.93639 | 28360 ft | 488 kts | 315° |
| 2026-05-04 11:55 | 47.74369 | 4.90401 | 27803 ft | 482 kts | 315° |
| 2026-05-04 11:56 | 47.76915 | 4.87209 | 27485 ft | 476 kts | 315° |
| 2026-05-04 11:56 | 47.79419 | 4.84043 | 27149 ft | 481 kts | 315° |
| 2026-05-04 11:56 | 47.81981 | 4.80788 | 26799 ft | 484 kts | 315° |
| 2026-05-04 11:56 | 47.84550 | 4.77517 | 26434 ft | 482 kts | 315° |
| 2026-05-04 11:57 | 47.87072 | 4.74307 | 26085 ft | 479 kts | 315° |
| 2026-05-04 11:57 | 47.89609 | 4.71075 | 25723 ft | 476 kts | 315° |
| 2026-05-04 11:57 | 47.92117 | 4.67875 | 25386 ft | 472 kts | 315° |
| 2026-05-04 11:57 | 47.94574 | 4.64736 | 25069 ft | 468 kts | 315° |
| 2026-05-04 11:58 | 47.97048 | 4.61569 | 24719 ft | 465 kts | 315° |
| 2026-05-04 11:58 | 47.99491 | 4.58439 | 24382 ft | 461 kts | 315° |
| 2026-05-04 11:58 | 48.01926 | 4.55315 | 24046 ft | 458 kts | 315° |
| 2026-05-04 11:58 | 48.04308 | 4.52254 | 23719 ft | 456 kts | 315° |
| 2026-05-04 11:59 | 48.06718 | 4.49153 | 23348 ft | 453 kts | 315° |
| 2026-05-04 11:59 | 48.09101 | 4.46083 | 22985 ft | 450 kts | 315° |
| 2026-05-04 11:59 | 48.11449 | 4.43055 | 22631 ft | 447 kts | 315° |
| 2026-05-04 11:59 | 48.13808 | 4.40008 | 22307 ft | 444 kts | 315° |
| 2026-05-04 12:00 | 48.16150 | 4.36980 | 21979 ft | 441 kts | 315° |
| 2026-05-04 12:00 | 48.18446 | 4.34007 | 21663 ft | 439 kts | 315° |
| 2026-05-04 12:00 | 48.20757 | 4.31011 | 21344 ft | 436 kts | 315° |
| 2026-05-04 12:00 | 48.23052 | 4.28033 | 21033 ft | 434 kts | 315° |
| 2026-05-04 12:01 | 48.25317 | 4.25091 | 20734 ft | 432 kts | 316° |
| 2026-05-04 12:01 | 48.27489 | 4.22011 | 20412 ft | 426 kts | 309° |
| 2026-05-04 12:02 | 48.38510 | 4.01489 | 18555 ft | 403 kts | 307° |
| 2026-05-04 12:03 | 48.40261 | 3.98292 | 18272 ft | 395 kts | 306° |
| 2026-05-04 12:03 | 48.42002 | 3.95101 | 17956 ft | 392 kts | 306° |
| 2026-05-04 12:03 | 48.43734 | 3.91920 | 17657 ft | 391 kts | 306° |
| 2026-05-04 12:03 | 48.45465 | 3.88737 | 17356 ft | 389 kts | 306° |
| 2026-05-04 12:04 | 48.47157 | 3.85621 | 17073 ft | 388 kts | 306° |
| 2026-05-04 12:04 | 48.48866 | 3.82473 | 16805 ft | 388 kts | 306° |
| 2026-05-04 12:04 | 48.50576 | 3.79320 | 16534 ft | 388 kts | 306° |
| 2026-05-04 12:04 | 48.52290 | 3.76154 | 16238 ft | 389 kts | 306° |
| 2026-05-04 12:05 | 48.53978 | 3.73026 | 15933 ft | 386 kts | 306° |
| 2026-05-04 12:05 | 48.55522 | 3.69763 | 15734 ft | 377 kts | 300° |
| 2026-05-04 12:05 | 48.56900 | 3.66427 | 15549 ft | 372 kts | 298° |
| 2026-05-04 12:05 | 48.58260 | 3.63108 | 15344 ft | 371 kts | 299° |
| 2026-05-04 12:06 | 48.59644 | 3.59823 | 15161 ft | 369 kts | 300° |
| 2026-05-04 12:06 | 48.61029 | 3.56583 | 14976 ft | 373 kts | 301° |
| 2026-05-04 12:06 | 48.62445 | 3.53279 | 14946 ft | 374 kts | 301° |
| 2026-05-04 12:06 | 48.63869 | 3.49956 | 14890 ft | 375 kts | 301° |
| 2026-05-04 12:07 | 48.65294 | 3.46626 | 14856 ft | 376 kts | 302° |
| 2026-05-04 12:07 | 48.66696 | 3.43340 | 14806 ft | 376 kts | 302° |
| 2026-05-04 12:07 | 48.68119 | 3.40006 | 14760 ft | 376 kts | 302° |
| 2026-05-04 12:07 | 48.69542 | 3.36666 | 14732 ft | 377 kts | 302° |
| 2026-05-04 12:08 | 48.70954 | 3.33349 | 14681 ft | 379 kts | 302° |
| 2026-05-04 12:08 | 48.72386 | 3.29983 | 14614 ft | 380 kts | 302° |
| 2026-05-04 12:08 | 48.73822 | 3.26601 | 14550 ft | 378 kts | 302° |
| 2026-05-04 12:08 | 48.75243 | 3.23250 | 14516 ft | 376 kts | 302° |
| 2026-05-04 12:09 | 48.76638 | 3.19954 | 14473 ft | 374 kts | 302° |
| 2026-05-04 12:09 | 48.78046 | 3.16622 | 14444 ft | 373 kts | 302° |
| 2026-05-04 12:09 | 48.79451 | 3.13295 | 14381 ft | 372 kts | 302° |
| 2026-05-04 12:09 | 48.80837 | 3.10009 | 14343 ft | 372 kts | 302° |
| 2026-05-04 12:10 | 48.82234 | 3.06693 | 14299 ft | 372 kts | 302° |
| 2026-05-04 12:10 | 48.83632 | 3.03371 | 14248 ft | 374 kts | 302° |
| 2026-05-04 12:10 | 48.85070 | 3.00122 | 14202 ft | 373 kts | 308° |
| 2026-05-04 12:10 | 48.86786 | 2.97156 | 14154 ft | 372 kts | 314° |
| 2026-05-04 12:11 | 48.88559 | 2.94404 | 14121 ft | 362 kts | 315° |
| 2026-05-04 12:11 | 48.90284 | 2.91687 | 14064 ft | 349 kts | 314° |
| 2026-05-04 12:11 | 48.91910 | 2.89034 | 13982 ft | 336 kts | 313° |
| 2026-05-04 12:11 | 48.93463 | 2.86460 | 13955 ft | 323 kts | 313° |
| 2026-05-04 12:12 | 48.94963 | 2.84011 | 13718 ft | 317 kts | 314° |
| 2026-05-04 12:12 | 48.96485 | 2.81613 | 13457 ft | 312 kts | 315° |
| 2026-05-04 12:12 | 48.98003 | 2.79235 | 13208 ft | 313 kts | 315° |
| 2026-05-04 12:12 | 48.99529 | 2.76850 | 12955 ft | 315 kts | 315° |
| 2026-05-04 12:13 | 49.01048 | 2.74455 | 12660 ft | 320 kts | 315° |
| 2026-05-04 12:14 | 49.11391 | 2.57598 | 10737 ft | 291 kts | 300° |
| 2026-05-04 12:15 | 49.12292 | 2.54813 | 10552 ft | 299 kts | 295° |
| 2026-05-04 12:15 | 49.13137 | 2.51889 | 10291 ft | 301 kts | 294° |
| 2026-05-04 12:15 | 49.13991 | 2.48967 | 10007 ft | 298 kts | 295° |
| 2026-05-04 12:15 | 49.14856 | 2.46110 | 9738 ft | 293 kts | 295° |
| 2026-05-04 12:16 | 49.15709 | 2.43341 | 9479 ft | 289 kts | 296° |
| 2026-05-04 12:16 | 49.16566 | 2.40575 | 9247 ft | 285 kts | 296° |
| 2026-05-04 12:16 | 49.17384 | 2.37838 | 8979 ft | 279 kts | 289° |
| 2026-05-04 12:16 | 49.17586 | 2.34966 | 8736 ft | 274 kts | 264° |
| 2026-05-04 12:17 | 49.17363 | 2.32063 | 8519 ft | 276 kts | 264° |
| 2026-05-04 12:17 | 49.17160 | 2.29131 | 8280 ft | 278 kts | 264° |
| 2026-05-04 12:17 | 49.16966 | 2.26174 | 8067 ft | 278 kts | 264° |
| 2026-05-04 12:17 | 49.16774 | 2.23255 | 7837 ft | 279 kts | 264° |
| 2026-05-04 12:18 | 49.16580 | 2.20289 | 7607 ft | 279 kts | 264° |
| 2026-05-04 12:18 | 49.16384 | 2.17353 | 7364 ft | 274 kts | 262° |
| 2026-05-04 12:18 | 49.15784 | 2.14645 | 7092 ft | 267 kts | 234° |
| 2026-05-04 12:18 | 49.14444 | 2.12807 | 6944 ft | 262 kts | 206° |
| 2026-05-04 12:19 | 49.12712 | 2.11948 | 6784 ft | 264 kts | 186° |
| 2026-05-04 12:19 | 49.10873 | 2.12038 | 6623 ft | 265 kts | 171° |
| 2026-05-04 12:19 | 49.09035 | 2.12412 | 6422 ft | 268 kts | 174° |
| 2026-05-04 12:19 | 49.07183 | 2.12642 | 6257 ft | 265 kts | 174° |
| 2026-05-04 12:20 | 49.05356 | 2.12858 | 6063 ft | 258 kts | 174° |
| 2026-05-04 12:20 | 49.03588 | 2.13083 | 5889 ft | 251 kts | 174° |
| 2026-05-04 12:20 | 49.01883 | 2.13308 | 5719 ft | 244 kts | 174° |
| 2026-05-04 12:20 | 49.00211 | 2.13531 | 5559 ft | 237 kts | 174° |
| 2026-05-04 12:21 | 48.98620 | 2.13774 | 5398 ft | 225 kts | 167° |
| 2026-05-04 12:21 | 48.97338 | 2.14871 | 5221 ft | 205 kts | 122° |
| 2026-05-04 12:21 | 48.96985 | 2.16862 | 5148 ft | 198 kts | 83° |
| 2026-05-04 12:21 | 48.97213 | 2.18905 | 5166 ft | 200 kts | 82° |
| 2026-05-04 12:22 | 48.97374 | 2.21030 | 4898 ft | 201 kts | 85° |
| 2026-05-04 12:22 | 48.97496 | 2.23128 | 4635 ft | 196 kts | 85° |
| 2026-05-04 12:22 | 48.97605 | 2.25105 | 4389 ft | 181 kts | 85° |
| 2026-05-04 12:22 | 48.97705 | 2.26944 | 4132 ft | 165 kts | 86° |
| 2026-05-04 12:23 | 48.97795 | 2.28633 | 3962 ft | 157 kts | 86° |
| 2026-05-04 12:23 | 48.97883 | 2.30272 | 3743 ft | 152 kts | 86° |
| 2026-05-04 12:23 | 48.97969 | 2.31870 | 3559 ft | 153 kts | 86° |
| 2026-05-04 12:23 | 48.98054 | 2.33474 | 3345 ft | 154 kts | 86° |
| 2026-05-04 12:24 | 48.98141 | 2.35095 | 3128 ft | 153 kts | 86° |
| 2026-05-04 12:24 | 48.98228 | 2.36710 | 2931 ft | 153 kts | 86° |
| 2026-05-04 12:24 | 48.98314 | 2.38324 | 2720 ft | 152 kts | 86° |
| 2026-05-04 12:24 | 48.98398 | 2.39905 | 2508 ft | 150 kts | 86° |
| 2026-05-04 12:25 | 48.98483 | 2.41491 | 2293 ft | 150 kts | 86° |
| 2026-05-04 12:25 | 48.98568 | 2.43067 | 2104 ft | 149 kts | 86° |
| 2026-05-04 12:25 | 48.98653 | 2.44657 | 1898 ft | 149 kts | 86° |
| 2026-05-04 12:25 | 48.98736 | 2.46208 | 1707 ft | 148 kts | 86° |
| 2026-05-04 12:26 | 48.98820 | 2.47767 | 1507 ft | 148 kts | 86° |
| 2026-05-04 12:26 | 48.98903 | 2.49338 | 1306 ft | 149 kts | 86° |
| 2026-05-04 12:26 | 48.98987 | 2.50905 | 1099 ft | 147 kts | 85° |
| 2026-05-04 12:26 | 48.99076 | 2.52452 | 900 ft | 144 kts | 84° |
| 2026-05-04 12:27 | 48.99168 | 2.53948 | 736 ft | 145 kts | 85° |
| 2026-05-04 12:27 | 48.99233 | 2.55488 | 556 ft | 145 kts | 85° |
| 2026-05-04 12:27 | 48.99321 | 2.57021 | 399 ft | 144 kts | 84° |
| 2026-05-04 12:27 | 48.99406 | 2.58497 | 359 ft | 131 kts | 84° |
| 2026-05-04 12:28 | 48.99437 | 2.59643 | 363 ft | 85 kts | 88° |
| 2026-05-04 12:28 | 48.99487 | 2.60126 | 367 ft | 20 kts | 60° |
| 2026-05-04 12:28 | 48.99558 | 2.60198 | 363 ft | 10 kts | 0° |
| 2026-05-04 12:28 | 48.99627 | 2.60185 | 363 ft | 10 kts | 352° |
| 2026-05-04 12:29 | 48.99698 | 2.60172 | 366 ft | 11 kts | 356° |
| 2026-05-04 12:29 | 48.99802 | 2.60162 | 360 ft | 18 kts | 359° |
| 2026-05-04 12:29 | 48.99917 | 2.60224 | 364 ft | 16 kts | 16° |
| 2026-05-04 12:29 | 49.00011 | 2.60199 | 368 ft | 15 kts | 309° |
| 2026-05-04 12:30 | 49.00015 | 2.60049 | 366 ft | 15 kts | 264° |
| 2026-05-04 12:30 | 49.00006 | 2.59891 | 360 ft | 15 kts | 265° |
| 2026-05-04 12:30 | 48.99997 | 2.59730 | 362 ft | 15 kts | 265° |
| 2026-05-04 12:30 | 48.99989 | 2.59565 | 365 ft | 16 kts | 266° |
| 2026-05-04 12:31 | 48.99982 | 2.59398 | 362 ft | 16 kts | 266° |
| 2026-05-04 12:31 | 48.99971 | 2.59228 | 361 ft | 16 kts | 264° |
| 2026-05-04 12:31 | 48.99962 | 2.59059 | 362 ft | 16 kts | 266° |
| 2026-05-04 12:31 | 48.99953 | 2.58888 | 361 ft | 16 kts | 265° |
| 2026-05-04 12:32 | 48.99944 | 2.58717 | 367 ft | 16 kts | 266° |
| 2026-05-04 12:32 | 48.99925 | 2.58374 | 364 ft | 16 kts | 264° |
| 2026-05-04 12:32 | 48.99915 | 2.58206 | 367 ft | 16 kts | 264° |
| 2026-05-04 12:33 | 48.99905 | 2.58035 | 361 ft | 16 kts | 266° |
| 2026-05-04 12:33 | 48.99899 | 2.57863 | 363 ft | 16 kts | 267° |
| 2026-05-04 12:33 | 48.99889 | 2.57692 | 363 ft | 16 kts | 263° |
| 2026-05-04 12:33 | 48.99875 | 2.57524 | 365 ft | 16 kts | 265° |
| 2026-05-04 12:34 | 48.99870 | 2.57352 | 365 ft | 16 kts | 267° |
| 2026-05-04 12:34 | 48.99862 | 2.57182 | 361 ft | 16 kts | 264° |
| 2026-05-04 12:34 | 48.99852 | 2.57015 | 363 ft | 16 kts | 265° |
| 2026-05-04 12:34 | 48.99842 | 2.56846 | 362 ft | 16 kts | 264° |
| 2026-05-04 12:35 | 48.99839 | 2.56681 | 359 ft | 16 kts | 279° |
| 2026-05-04 12:35 | 48.99917 | 2.56587 | 363 ft | 16 kts | 355° |
| 2026-05-04 12:35 | 49.00023 | 2.56576 | 364 ft | 14 kts | 355° |
| 2026-05-04 12:35 | 49.00099 | 2.56514 | 367 ft | 11 kts | 288° |
| 2026-05-04 12:36 | 49.00103 | 2.56434 | 366 ft | 12 kts | 270° |
| 2026-05-04 12:36 | 49.00095 | 2.56288 | 359 ft | 10 kts | 265° |
| 2026-05-04 12:36 | 49.00091 | 2.56214 | 365 ft | 11 kts | 265° |
| 2026-05-04 12:36 | 49.00109 | 2.56128 | 367 ft | 9 kts | 332° |
| 2026-05-04 12:37 | 49.00149 | 2.56130 | 363 ft | 2 kts | 6° |
| 2026-05-04 12:37 | 49.00167 | 2.56132 | 362 ft | 3 kts | 4° |
| 2026-05-04 12:37 | 49.00169 | 2.56132 | 362 ft | 0 kts | 4° |
| 2026-05-04 12:38 | 49.00161 | 2.56202 | 367 ft | 0 kts | 352° |